Hathaway, MT

3:32 AM MDT on September 17, 2014 (GMT -0600)
Wiley | Change Station
CLOSE
Current Station
Airport
Location: Miles City,
Elevation: 2628 ft
Nearby Weather Stations

Elev 2628 ft 46.43 °N, 105.88 °W | Updated 39 minutes ago

Partly Cloudy
Partly Cloudy
53 °F
Feels Like 53 °F
N
8
Wind Variable Wind from NNE

Today
High -- | Low -- °F
--% Chance of Precip.
Yesterday
High -- | Low -- °F
Precip. -- in
6:45 AM 7:12 PM
Last Quarter, 37% visible
Pressure 29.87 in
Visibility 10.0 miles
Clouds Clear
Dew Point 47 °F
Humidity 80%
Rainfall 0.00 in
Snow Depth 0 in , 0 in , 0 in
UV 0 out of 12
Pollen 5.10 out of 12
Air Quality Not available.
Flu Activity Not available.
METAR KMLS 170853Z AUTO 02007KT 10SM CLR 12/08 A2990 RMK AO2 SLP114 T01170083 58004

More Conditions Fewer Conditions

Pressure 29.87 in
Visibility 10.0 miles
Clouds Clear
Dew Point 47 °F
Humidity 80%
Rainfall 0.00 in
Snow Depth 0 in , 0 in , 0 in
UV 0 out of 12
Pollen 5.10 out of 12
Air Quality Not available.
Flu Activity Not available.
METAR KMLS 170853Z AUTO 02007KT 10SM CLR 12/08 A2990 RMK AO2 SLP114 T01170083 58004

More Conditions Fewer Conditions

10-Day Weather Forecast

Almanac

Astronomy

Sep. 17, 2014 Rise Set
Actual Time 6:45 AM MDT 7:12 PM MDT
Civil Twilight 6:15 AM MDT 7:42 PM MDT
Nautical Twilight 5:39 AM MDT 8:17 PM MDT
Astronomical Twilight 5:02 AM MDT 8:54 PM MDT
Moon 12:33 AM MDT 3:37 PM MDT
Length of Visible Light 13h 26m
Length of Day
12h 26m
Tomorrow will be 3m 16s shorter.
Last Quarter, 37% of the Moon is Illuminated
Today
Last Quarter
Sep 24
New
Oct 1
First Quarter
Oct 8
Full
Oct 15
Last Quarter

Today's Extremes

State Highs State Lows

Community

WunderPhotos

Upload Photos

1,753,991 photos uploaded!

Nearby

Snow Depth

Station Depth Elevation
Onion Park 0 in 7410 ft
Brackett Creek 0 in 7320 ft
Mule Creek 0 in 8300 ft
Banfield Mountain 0 in 5600 ft
Calvert Creek 0 in 6430 ft

Earthquake Activity

City Distance Mag. Time & Date
No recent earthquake activity has been reported nearby.
Minimum magnitude displayed is 2.5.

Coastal Water Temperatures

Place Temperature
No Stations Reporting

Nearby Weather Stations